Terminal Aerodrome Forecast
Issued by NWS Lake Charles, LA

Home | Current Version | Previous Version | Text Only | Print | Product List | Glossary On
Versions: 1 2 3 4 5 6 7 8 9 10 11 12 13 14 15 16 17 18
522
FTUS44 KLCH 291126
TAFAEX
TAF
KAEX 291126Z 2912/3012 12009KT P6SM VCSH FEW021 OVC029
     FM291600 15012G26KT P6SM VCTS FEW025 BKN035CB
      TEMPO 2919/2923 2SM -TSRA
     FM292300 17011G22KT P6SM -RA VCTS BKN025CB
      TEMPO 2923/3003 2SM -TSRA
     FM300800 17008KT P6SM VCTS OVC025CB=

USA.gov is the U.S. government's official web portal to all federal, state and local government web resources and services.